sensor_id;sensor_type;location;lat;lon;timestamp;pressure;altitude;pressure_sealevel;temperature;humidity
82512;BME280;72152;65.012;25.464;2024-03-22T00:01:52;100804.99;;;2.68;71.85
82512;BME280;72152;65.012;25.464;2024-03-22T00:04:57;100804.69;;;2.68;71.79
82512;BME280;72152;65.012;25.464;2024-03-22T00:08:04;100801.02;;;2.68;71.79
82512;BME280;72152;65.012;25.464;2024-03-22T00:11:10;100799.28;;;2.68;71.72
82512;BME280;72152;65.012;25.464;2024-03-22T00:14:16;100802.16;;;2.66;71.84
82512;BME280;72152;65.012;25.464;2024-03-22T00:17:24;100807.19;;;2.65;71.75
82512;BME280;72152;65.012;25.464;2024-03-22T00:20:35;100809.76;;;2.64;71.74
82512;BME280;72152;65.012;25.464;2024-03-22T00:23:38;100809.97;;;2.65;71.82
82512;BME280;72152;65.012;25.464;2024-03-22T00:26:44;100807.45;;;2.68;71.89
82512;BME280;72152;65.012;25.464;2024-03-22T00:29:51;100809.77;;;2.70;72.00
82512;BME280;72152;65.012;25.464;2024-03-22T00:32:59;100812.91;;;2.70;71.94
82512;BME280;72152;65.012;25.464;2024-03-22T00:36:02;100810.19;;;2.67;71.93
82512;BME280;72152;65.012;25.464;2024-03-22T00:39:06;100810.15;;;2.66;71.97
82512;BME280;72152;65.012;25.464;2024-03-22T00:42:10;100806.50;;;2.65;72.05
82512;BME280;72152;65.012;25.464;2024-03-22T00:45:27;100800.95;;;2.66;72.08
82512;BME280;72152;65.012;25.464;2024-03-22T00:48:30;100802.69;;;2.66;71.98
82512;BME280;72152;65.012;25.464;2024-03-22T00:51:33;100797.30;;;2.65;72.07
82512;BME280;72152;65.012;25.464;2024-03-22T00:54:36;100796.21;;;2.64;72.03
82512;BME280;72152;65.012;25.464;2024-03-22T00:57:43;100792.78;;;2.66;72.03
82512;BME280;72152;65.012;25.464;2024-03-22T01:00:50;100788.09;;;2.65;71.98
82512;BME280;72152;65.012;25.464;2024-03-22T01:03:57;100779.84;;;2.57;72.08
82512;BME280;72152;65.012;25.464;2024-03-22T01:07:01;100775.06;;;2.54;72.31
82512;BME280;72152;65.012;25.464;2024-03-22T01:10:09;100761.65;;;2.52;72.48
82512;BME280;72152;65.012;25.464;2024-03-22T01:13:20;100756.58;;;2.52;72.50
82512;BME280;72152;65.012;25.464;2024-03-22T01:16:24;100752.05;;;2.52;72.60
82512;BME280;72152;65.012;25.464;2024-03-22T01:19:25;100749.91;;;2.50;72.63
82512;BME280;72152;65.012;25.464;2024-03-22T01:22:32;100739.13;;;2.48;72.57
82512;BME280;72152;65.012;25.464;2024-03-22T01:25:40;100728.20;;;2.49;72.77
82512;BME280;72152;65.012;25.464;2024-03-22T01:28:42;100723.82;;;2.47;72.84
82512;BME280;72152;65.012;25.464;2024-03-22T01:31:46;100717.02;;;2.47;72.87
82512;BME280;72152;65.012;25.464;2024-03-22T01:34:52;100711.61;;;2.46;72.96
82512;BME280;72152;65.012;25.464;2024-03-22T01:38:00;100700.73;;;2.48;72.97
82512;BME280;72152;65.012;25.464;2024-03-22T01:41:06;100700.25;;;2.49;72.95
82512;BME280;72152;65.012;25.464;2024-03-22T01:44:12;100693.49;;;2.50;73.04
82512;BME280;72152;65.012;25.464;2024-03-22T01:47:20;100689.54;;;2.51;73.01
82512;BME280;72152;65.012;25.464;2024-03-22T01:50:24;100691.27;;;2.51;73.00
82512;BME280;72152;65.012;25.464;2024-03-22T01:53:31;100690.87;;;2.49;73.09
82512;BME280;72152;65.012;25.464;2024-03-22T01:56:43;100682.70;;;2.49;73.07
82512;BME280;72152;65.012;25.464;2024-03-22T01:59:41;100683.71;;;2.48;73.06
82512;BME280;72152;65.012;25.464;2024-03-22T02:02:44;100680.46;;;2.49;73.09
82512;BME280;72152;65.012;25.464;2024-03-22T02:05:47;100676.65;;;2.50;73.03
82512;BME280;72152;65.012;25.464;2024-03-22T02:08:52;100671.77;;;2.50;73.04
82512;BME280;72152;65.012;25.464;2024-03-22T02:11:59;100669.14;;;2.48;73.00
82512;BME280;72152;65.012;25.464;2024-03-22T02:15:03;100657.98;;;2.47;73.01
82512;BME280;72152;65.012;25.464;2024-03-22T02:18:11;100653.38;;;2.44;72.96
82512;BME280;72152;65.012;25.464;2024-03-22T02:21:19;100648.10;;;2.41;72.95
82512;BME280;72152;65.012;25.464;2024-03-22T02:24:30;100644.47;;;2.42;72.97
82512;BME280;72152;65.012;25.464;2024-03-22T02:27:34;100641.05;;;2.44;72.97
82512;BME280;72152;65.012;25.464;2024-03-22T02:30:36;100640.73;;;2.45;73.12
82512;BME280;72152;65.012;25.464;2024-03-22T02:33:45;100635.21;;;2.46;73.01
82512;BME280;72152;65.012;25.464;2024-03-22T02:36:50;100632.45;;;2.46;73.11
82512;BME280;72152;65.012;25.464;2024-03-22T02:39:49;100631.27;;;2.48;73.07
82512;BME280;72152;65.012;25.464;2024-03-22T02:42:59;100629.37;;;2.48;73.12
82512;BME280;72152;65.012;25.464;2024-03-22T02:46:05;100625.67;;;2.47;73.07
82512;BME280;72152;65.012;25.464;2024-03-22T02:49:12;100619.05;;;2.46;73.12
82512;BME280;72152;65.012;25.464;2024-03-22T02:52:19;100611.59;;;2.46;73.18
82512;BME280;72152;65.012;25.464;2024-03-22T02:55:27;100610.45;;;2.49;73.24
82512;BME280;72152;65.012;25.464;2024-03-22T02:58:33;100603.00;;;2.49;73.16
82512;BME280;72152;65.012;25.464;2024-03-22T03:01:43;100591.95;;;2.45;73.20
82512;BME280;72152;65.012;25.464;2024-03-22T03:04:53;100587.02;;;2.42;73.27
82512;BME280;72152;65.012;25.464;2024-03-22T03:08:02;100581.55;;;2.40;73.24
82512;BME280;72152;65.012;25.464;2024-03-22T03:11:12;100573.52;;;2.39;73.39
82512;BME280;72152;65.012;25.464;2024-03-22T03:14:28;100566.13;;;2.41;73.43
82512;BME280;72152;65.012;25.464;2024-03-22T03:17:38;100568.37;;;2.40;73.42
82512;BME280;72152;65.012;25.464;2024-03-22T03:20:53;100555.13;;;2.39;73.47
82512;BME280;72152;65.012;25.464;2024-03-22T03:23:59;100549.93;;;2.39;73.63
82512;BME280;72152;65.012;25.464;2024-03-22T03:27:04;100538.42;;;2.37;73.65
82512;BME280;72152;65.012;25.464;2024-03-22T03:30:09;100532.08;;;2.33;73.64
82512;BME280;72152;65.012;25.464;2024-03-22T03:33:21;100528.77;;;2.33;73.59
82512;BME280;72152;65.012;25.464;2024-03-22T03:36:23;100521.02;;;2.29;73.70
82512;BME280;72152;65.012;25.464;2024-03-22T03:39:36;100517.33;;;2.27;73.79
82512;BME280;72152;65.012;25.464;2024-03-22T03:42:38;100508.34;;;2.29;73.71
82512;BME280;72152;65.012;25.464;2024-03-22T03:45:42;100503.43;;;2.27;73.67
82512;BME280;72152;65.012;25.464;2024-03-22T03:48:52;100499.58;;;2.26;73.55
82512;BME280;72152;65.012;25.464;2024-03-22T03:52:07;100497.52;;;2.20;73.59
82512;BME280;72152;65.012;25.464;2024-03-22T03:55:19;100497.30;;;2.19;73.57
82512;BME280;72152;65.012;25.464;2024-03-22T03:58:32;100493.98;;;2.17;73.64
82512;BME280;72152;65.012;25.464;2024-03-22T04:01:40;100485.05;;;2.15;73.65
82512;BME280;72152;65.012;25.464;2024-03-22T04:04:51;100479.36;;;2.16;73.57
82512;BME280;72152;65.012;25.464;2024-03-22T04:07:54;100475.94;;;2.18;73.58
82512;BME280;72152;65.012;25.464;2024-03-22T04:11:03;100471.29;;;2.20;73.55
82512;BME280;72152;65.012;25.464;2024-03-22T04:14:09;100458.62;;;2.19;73.61
82512;BME280;72152;65.012;25.464;2024-03-22T04:17:17;100448.98;;;2.17;73.62
82512;BME280;72152;65.012;25.464;2024-03-22T04:20:30;100447.41;;;2.15;73.54
82512;BME280;72152;65.012;25.464;2024-03-22T04:23:41;100441.54;;;2.16;73.70
82512;BME280;72152;65.012;25.464;2024-03-22T04:26:44;100437.17;;;2.15;73.73
82512;BME280;72152;65.012;25.464;2024-03-22T04:29:54;100422.95;;;2.16;73.85
82512;BME280;72152;65.012;25.464;2024-03-22T04:33:12;100417.79;;;2.18;73.95
82512;BME280;72152;65.012;25.464;2024-03-22T04:36:26;100411.96;;;2.20;74.03
82512;BME280;72152;65.012;25.464;2024-03-22T04:39:27;100402.14;;;2.23;74.00
82512;BME280;72152;65.012;25.464;2024-03-22T04:42:38;100394.19;;;2.25;73.95
82512;BME280;72152;65.012;25.464;2024-03-22T04:45:49;100392.05;;;2.29;74.01
82512;BME280;72152;65.012;25.464;2024-03-22T04:49:00;100386.23;;;2.33;73.86
82512;BME280;72152;65.012;25.464;2024-03-22T04:52:06;100384.75;;;2.36;73.78
82512;BME280;72152;65.012;25.464;2024-03-22T04:55:21;100381.14;;;2.38;73.90
82512;BME280;72152;65.012;25.464;2024-03-22T04:58:34;100380.91;;;2.42;73.84
82512;BME280;72152;65.012;25.464;2024-03-22T05:01:40;100371.78;;;2.45;73.73
82512;BME280;72152;65.012;25.464;2024-03-22T05:04:48;100369.36;;;2.46;73.77
82512;BME280;72152;65.012;25.464;2024-03-22T05:07:50;100373.89;;;2.47;73.82
82512;BME280;72152;65.012;25.464;2024-03-22T05:10:55;100369.05;;;2.48;73.92
82512;BME280;72152;65.012;25.464;2024-03-22T05:14:00;100364.41;;;2.50;73.84
82512;BME280;72152;65.012;25.464;2024-03-22T05:17:08;100358.61;;;2.54;73.92
82512;BME280;72152;65.012;25.464;2024-03-22T05:20:22;100353.89;;;2.60;73.94
82512;BME280;72152;65.012;25.464;2024-03-22T05:23:24;100353.30;;;2.65;73.85
82512;BME280;72152;65.012;25.464;2024-03-22T05:26:35;100352.00;;;2.69;73.83
82512;BME280;72152;65.012;25.464;2024-03-22T05:29:44;100356.40;;;2.71;73.87
82512;BME280;72152;65.012;25.464;2024-03-22T05:32:54;100349.37;;;2.75;73.91
82512;BME280;72152;65.012;25.464;2024-03-22T05:36:03;100343.00;;;2.78;73.92
82512;BME280;72152;65.012;25.464;2024-03-22T05:39:06;100335.64;;;2.84;73.92
82512;BME280;72152;65.012;25.464;2024-03-22T05:42:14;100332.98;;;2.89;73.85
82512;BME280;72152;65.012;25.464;2024-03-22T05:45:23;100327.13;;;2.91;73.81
82512;BME280;72152;65.012;25.464;2024-03-22T05:48:40;100325.23;;;2.92;73.82
82512;BME280;72152;65.012;25.464;2024-03-22T05:51:45;100324.58;;;2.94;73.80
82512;BME280;72152;65.012;25.464;2024-03-22T05:54:53;100323.77;;;2.96;73.94
82512;BME280;72152;65.012;25.464;2024-03-22T05:58:03;100323.97;;;2.99;73.81
82512;BME280;72152;65.012;25.464;2024-03-22T06:01:07;100321.13;;;3.03;73.85
82512;BME280;72152;65.012;25.464;2024-03-22T06:04:08;100322.61;;;3.08;73.75
82512;BME280;72152;65.012;25.464;2024-03-22T06:07:15;100323.89;;;3.11;73.58
82512;BME280;72152;65.012;25.464;2024-03-22T06:13:35;100325.61;;;3.19;73.42
82512;BME280;72152;65.012;25.464;2024-03-22T06:16:39;100317.02;;;3.25;73.44
82512;BME280;72152;65.012;25.464;2024-03-22T06:19:46;100314.54;;;3.32;73.30
82512;BME280;72152;65.012;25.464;2024-03-22T06:22:54;100305.73;;;3.35;73.15
82512;BME280;72152;65.012;25.464;2024-03-22T06:29:21;100287.07;;;3.41;72.98
82512;BME280;72152;65.012;25.464;2024-03-22T06:32:31;100287.06;;;3.40;72.73
82512;BME280;72152;65.012;25.464;2024-03-22T06:35:35;100283.42;;;3.41;72.75
82512;BME280;72152;65.012;25.464;2024-03-22T06:38:41;100277.55;;;3.43;72.72
82512;BME280;72152;65.012;25.464;2024-03-22T06:41:46;100264.08;;;3.48;72.67
82512;BME280;72152;65.012;25.464;2024-03-22T06:45:05;100249.87;;;3.51;72.54
82512;BME280;72152;65.012;25.464;2024-03-22T06:48:11;100236.34;;;3.54;72.43
82512;BME280;72152;65.012;25.464;2024-03-22T06:51:13;100235.84;;;3.55;72.33
82512;BME280;72152;65.012;25.464;2024-03-22T06:54:26;100239.02;;;3.58;72.31
82512;BME280;72152;65.012;25.464;2024-03-22T06:57:37;100237.20;;;3.63;72.39
82512;BME280;72152;65.012;25.464;2024-03-22T07:00:40;100230.80;;;3.66;72.16
82512;BME280;72152;65.012;25.464;2024-03-22T07:03:49;100224.27;;;3.69;72.13
82512;BME280;72152;65.012;25.464;2024-03-22T07:07:03;100238.05;;;3.73;72.22
82512;BME280;72152;65.012;25.464;2024-03-22T07:10:13;100238.03;;;3.82;72.10
82512;BME280;72152;65.012;25.464;2024-03-22T07:13:28;100227.14;;;3.86;71.98
82512;BME280;72152;65.012;25.464;2024-03-22T07:16:40;100206.64;;;3.89;71.88
82512;BME280;72152;65.012;25.464;2024-03-22T07:19:50;100193.84;;;3.94;71.82
82512;BME280;72152;65.012;25.464;2024-03-22T07:23:00;100187.54;;;3.92;71.72
82512;BME280;72152;65.012;25.464;2024-03-22T07:26:13;100182.96;;;3.88;71.69
82512;BME280;72152;65.012;25.464;2024-03-22T07:29:28;100179.48;;;3.88;71.60
82512;BME280;72152;65.012;25.464;2024-03-22T07:32:33;100177.72;;;3.87;71.60
82512;BME280;72152;65.012;25.464;2024-03-22T07:35:41;100176.16;;;3.88;71.44
82512;BME280;72152;65.012;25.464;2024-03-22T07:39:10;100181.36;;;3.86;71.66
82512;BME280;72152;65.012;25.464;2024-03-22T07:42:35;100186.92;;;3.85;71.66
82512;BME280;72152;65.012;25.464;2024-03-22T07:45:43;100187.92;;;3.83;71.47
82512;BME280;72152;65.012;25.464;2024-03-22T07:48:50;100175.79;;;3.85;71.52
82512;BME280;72152;65.012;25.464;2024-03-22T07:52:00;100175.29;;;3.87;71.52
82512;BME280;72152;65.012;25.464;2024-03-22T07:55:06;100170.74;;;3.87;71.63
82512;BME280;72152;65.012;25.464;2024-03-22T07:58:10;100171.80;;;3.87;71.63
82512;BME280;72152;65.012;25.464;2024-03-22T08:01:28;100171.83;;;3.88;71.71
82512;BME280;72152;65.012;25.464;2024-03-22T08:04:34;100168.04;;;3.91;71.34
82512;BME280;72152;65.012;25.464;2024-03-22T08:07:45;100157.43;;;3.91;71.22
82512;BME280;72152;65.012;25.464;2024-03-22T08:11:01;100152.20;;;3.91;71.29
82512;BME280;72152;65.012;25.464;2024-03-22T08:14:12;100148.92;;;3.94;71.25
82512;BME280;72152;65.012;25.464;2024-03-22T08:17:16;100141.00;;;3.99;71.23
82512;BME280;72152;65.012;25.464;2024-03-22T08:20:26;100137.77;;;4.05;71.42
82512;BME280;72152;65.012;25.464;2024-03-22T08:23:43;100130.52;;;4.09;71.13
82512;BME280;72152;65.012;25.464;2024-03-22T08:27:05;100130.80;;;4.18;71.22
82512;BME280;72152;65.012;25.464;2024-03-22T08:30:08;100131.14;;;4.31;70.98
82512;BME280;72152;65.012;25.464;2024-03-22T08:33:21;100127.60;;;4.41;70.77
82512;BME280;72152;65.012;25.464;2024-03-22T08:36:43;100120.76;;;4.50;70.77
82512;BME280;72152;65.012;25.464;2024-03-22T08:39:54;100113.15;;;4.56;70.59
82512;BME280;72152;65.012;25.464;2024-03-22T08:43:10;100113.50;;;4.57;70.33
82512;BME280;72152;65.012;25.464;2024-03-22T08:46:23;100107.77;;;4.58;70.59
82512;BME280;72152;65.012;25.464;2024-03-22T08:49:31;100105.99;;;4.56;70.30
82512;BME280;72152;65.012;25.464;2024-03-22T08:52:39;100107.20;;;4.54;70.07
82512;BME280;72152;65.012;25.464;2024-03-22T08:55:37;100110.70;;;4.54;70.17
82512;BME280;72152;65.012;25.464;2024-03-22T08:58:48;100107.89;;;4.54;70.07
82512;BME280;72152;65.012;25.464;2024-03-22T09:01:55;100108.08;;;4.53;70.10
82512;BME280;72152;65.012;25.464;2024-03-22T09:05:04;100101.15;;;4.59;70.03
82512;BME280;72152;65.012;25.464;2024-03-22T09:08:10;100091.05;;;4.60;69.77
82512;BME280;72152;65.012;25.464;2024-03-22T09:11:24;100085.60;;;4.71;69.86
82512;BME280;72152;65.012;25.464;2024-03-22T09:14:34;100082.64;;;4.89;69.73
82512;BME280;72152;65.012;25.464;2024-03-22T09:17:45;100076.29;;;5.01;69.01
82512;BME280;72152;65.012;25.464;2024-03-22T09:20:46;100072.80;;;5.00;69.07
82512;BME280;72152;65.012;25.464;2024-03-22T09:23:52;100068.46;;;5.04;68.92
82512;BME280;72152;65.012;25.464;2024-03-22T09:26:59;100060.30;;;5.08;68.63
82512;BME280;72152;65.012;25.464;2024-03-22T09:30:21;100053.36;;;5.12;68.19
82512;BME280;72152;65.012;25.464;2024-03-22T09:33:29;100048.16;;;5.17;68.19
82512;BME280;72152;65.012;25.464;2024-03-22T09:36:34;100042.30;;;5.24;67.94
82512;BME280;72152;65.012;25.464;2024-03-22T09:39:38;100035.67;;;5.25;67.90
82512;BME280;72152;65.012;25.464;2024-03-22T09:42:43;100029.81;;;5.33;67.52
82512;BME280;72152;65.012;25.464;2024-03-22T09:45:54;100023.04;;;5.40;67.21
82512;BME280;72152;65.012;25.464;2024-03-22T09:48:58;100012.23;;;5.44;67.01
82512;BME280;72152;65.012;25.464;2024-03-22T09:52:02;100011.92;;;5.47;67.01
82512;BME280;72152;65.012;25.464;2024-03-22T09:55:04;100010.72;;;5.52;66.72
82512;BME280;72152;65.012;25.464;2024-03-22T09:58:15;100010.38;;;5.54;66.46
82512;BME280;72152;65.012;25.464;2024-03-22T10:01:22;100007.96;;;5.59;66.08
82512;BME280;72152;65.012;25.464;2024-03-22T10:04:33;100007.11;;;5.58;66.12
82512;BME280;72152;65.012;25.464;2024-03-22T10:07:44;100000.29;;;5.59;65.92
82512;BME280;72152;65.012;25.464;2024-03-22T10:10:54;99999.09;;;5.63;65.66
82512;BME280;72152;65.012;25.464;2024-03-22T10:14:02;99999.99;;;5.71;65.29
82512;BME280;72152;65.012;25.464;2024-03-22T10:17:07;99996.54;;;5.76;65.11
82512;BME280;72152;65.012;25.464;2024-03-22T10:20:24;99993.83;;;5.87;64.83
82512;BME280;72152;65.012;25.464;2024-03-22T10:23:29;99985.84;;;6.01;64.00
82512;BME280;72152;65.012;25.464;2024-03-22T10:26:35;99979.22;;;6.10;63.80
82512;BME280;72152;65.012;25.464;2024-03-22T10:29:43;99970.35;;;6.23;63.37
82512;BME280;72152;65.012;25.464;2024-03-22T10:32:51;99966.16;;;6.28;63.24
82512;BME280;72152;65.012;25.464;2024-03-22T10:36:00;99961.10;;;6.32;62.74
82512;BME280;72152;65.012;25.464;2024-03-22T10:39:13;99953.25;;;6.40;62.55
82512;BME280;72152;65.012;25.464;2024-03-22T10:42:16;99950.63;;;6.48;62.55
82512;BME280;72152;65.012;25.464;2024-03-22T10:45:26;99945.23;;;6.52;62.05
82512;BME280;72152;65.012;25.464;2024-03-22T10:48:32;99940.85;;;6.53;61.38
82512;BME280;72152;65.012;25.464;2024-03-22T10:51:41;99937.88;;;6.50;61.48
82512;BME280;72152;65.012;25.464;2024-03-22T10:54:51;99928.97;;;6.56;61.49
82512;BME280;72152;65.012;25.464;2024-03-22T10:57:55;99923.03;;;6.59;61.45
82512;BME280;72152;65.012;25.464;2024-03-22T11:04:15;99917.43;;;6.65;60.85
82512;BME280;72152;65.012;25.464;2024-03-22T11:07:27;99914.98;;;6.66;60.49
82512;BME280;72152;65.012;25.464;2024-03-22T11:10:35;99907.45;;;6.70;60.78
82512;BME280;72152;65.012;25.464;2024-03-22T11:13:35;99906.25;;;6.69;60.54
82512;BME280;72152;65.012;25.464;2024-03-22T11:16:47;99905.01;;;6.69;60.09
82512;BME280;72152;65.012;25.464;2024-03-22T11:19:56;99899.25;;;6.66;60.18
82512;BME280;72152;65.012;25.464;2024-03-22T11:23:03;99896.29;;;6.64;60.22
82512;BME280;72152;65.012;25.464;2024-03-22T11:26:11;99894.71;;;6.65;60.12
82512;BME280;72152;65.012;25.464;2024-03-22T11:29:17;99890.15;;;6.68;59.86
82512;BME280;72152;65.012;25.464;2024-03-22T11:32:24;99886.84;;;6.72;59.97
82512;BME280;72152;65.012;25.464;2024-03-22T11:35:29;99880.71;;;6.66;60.21
82512;BME280;72152;65.012;25.464;2024-03-22T11:38:35;99873.57;;;6.62;60.41
82512;BME280;72152;65.012;25.464;2024-03-22T11:41:36;99869.39;;;6.54;60.37
82512;BME280;72152;65.012;25.464;2024-03-22T11:44:43;99869.04;;;6.43;60.55
82512;BME280;72152;65.012;25.464;2024-03-22T11:47:51;99868.34;;;6.38;60.58
82512;BME280;72152;65.012;25.464;2024-03-22T11:50:55;99862.73;;;6.37;60.83
82512;BME280;72152;65.012;25.464;2024-03-22T11:54:02;99857.34;;;6.29;61.18
82512;BME280;72152;65.012;25.464;2024-03-22T11:57:14;99851.73;;;6.24;61.49
82512;BME280;72152;65.012;25.464;2024-03-22T12:00:28;99844.58;;;6.18;61.30
82512;BME280;72152;65.012;25.464;2024-03-22T12:03:41;99837.93;;;6.11;61.93
82512;BME280;72152;65.012;25.464;2024-03-22T12:06:45;99831.30;;;6.11;62.46
82512;BME280;72152;65.012;25.464;2024-03-22T12:09:58;99818.55;;;6.16;62.50
82512;BME280;72152;65.012;25.464;2024-03-22T12:13:04;99813.83;;;6.17;62.61
82512;BME280;72152;65.012;25.464;2024-03-22T12:16:12;99810.33;;;6.17;62.83
82512;BME280;72152;65.012;25.464;2024-03-22T12:19:19;99803.36;;;6.15;62.49
82512;BME280;72152;65.012;25.464;2024-03-22T12:22:27;99796.89;;;6.16;62.43
82512;BME280;72152;65.012;25.464;2024-03-22T12:25:30;99797.41;;;6.14;61.95
82512;BME280;72152;65.012;25.464;2024-03-22T12:28:39;99792.01;;;6.09;62.26
82512;BME280;72152;65.012;25.464;2024-03-22T12:31:42;99787.63;;;6.07;62.61
82512;BME280;72152;65.012;25.464;2024-03-22T12:34:43;99781.35;;;6.07;62.30
82512;BME280;72152;65.012;25.464;2024-03-22T12:37:49;99778.90;;;6.05;62.70
82512;BME280;72152;65.012;25.464;2024-03-22T12:40:56;99773.14;;;6.00;62.71
82512;BME280;72152;65.012;25.464;2024-03-22T12:43:58;99764.94;;;5.98;62.96
82512;BME280;72152;65.012;25.464;2024-03-22T12:46:57;99761.79;;;6.05;62.87
82512;BME280;72152;65.012;25.464;2024-03-22T12:50:07;99753.58;;;6.16;62.80
82512;BME280;72152;65.012;25.464;2024-03-22T12:53:13;99742.58;;;6.22;63.06
82512;BME280;72152;65.012;25.464;2024-03-22T12:56:28;99739.05;;;6.30;63.43
82512;BME280;72152;65.012;25.464;2024-03-22T12:59:34;99733.79;;;6.40;63.03
82512;BME280;72152;65.012;25.464;2024-03-22T13:02:53;99727.50;;;6.43;63.09
82512;BME280;72152;65.012;25.464;2024-03-22T13:05:59;99724.00;;;6.44;63.12
82512;BME280;72152;65.012;25.464;2024-03-22T13:09:06;99715.09;;;6.43;62.72
82512;BME280;72152;65.012;25.464;2024-03-22T13:12:21;99707.93;;;6.40;62.84
82512;BME280;72152;65.012;25.464;2024-03-22T13:15:26;99703.42;;;6.31;62.97
82512;BME280;72152;65.012;25.464;2024-03-22T13:18:30;99696.98;;;6.20;63.20
82512;BME280;72152;65.012;25.464;2024-03-22T13:21:31;99696.31;;;6.02;63.08
82512;BME280;72152;65.012;25.464;2024-03-22T13:24:43;99693.36;;;5.91;63.37
82512;BME280;72152;65.012;25.464;2024-03-22T13:27:54;99688.46;;;5.81;63.20
82512;BME280;72152;65.012;25.464;2024-03-22T13:31:05;99676.92;;;5.74;63.28
82512;BME280;72152;65.012;25.464;2024-03-22T13:34:11;99674.84;;;5.66;63.31
82512;BME280;72152;65.012;25.464;2024-03-22T13:37:20;99673.28;;;5.68;63.57
82512;BME280;72152;65.012;25.464;2024-03-22T13:40:24;99664.02;;;5.69;63.97
82512;BME280;72152;65.012;25.464;2024-03-22T13:43:25;99654.59;;;5.72;63.96
82512;BME280;72152;65.012;25.464;2024-03-22T13:46:32;99649.19;;;5.67;63.80
82512;BME280;72152;65.012;25.464;2024-03-22T13:49:43;99642.58;;;5.61;63.89
82512;BME280;72152;65.012;25.464;2024-03-22T13:52:49;99640.48;;;5.60;64.31
82512;BME280;72152;65.012;25.464;2024-03-22T13:55:56;99635.77;;;5.58;64.21
82512;BME280;72152;65.012;25.464;2024-03-22T13:59:05;99629.32;;;5.56;64.32
82512;BME280;72152;65.012;25.464;2024-03-22T14:02:13;99622.16;;;5.54;64.30
82512;BME280;72152;65.012;25.464;2024-03-22T14:05:22;99613.96;;;5.44;64.29
82512;BME280;72152;65.012;25.464;2024-03-22T14:08:24;99611.70;;;5.38;64.51
82512;BME280;72152;65.012;25.464;2024-03-22T14:11:35;99605.77;;;5.39;64.87
82512;BME280;72152;65.012;25.464;2024-03-22T14:14:46;99605.25;;;5.48;64.80
82512;BME280;72152;65.012;25.464;2024-03-22T14:17:51;99604.53;;;5.53;65.04
82512;BME280;72152;65.012;25.464;2024-03-22T14:20:58;99603.84;;;5.56;65.09
82512;BME280;72152;65.012;25.464;2024-03-22T14:24:05;99595.80;;;5.58;65.05
82512;BME280;72152;65.012;25.464;2024-03-22T14:27:11;99597.20;;;5.57;65.18
82512;BME280;72152;65.012;25.464;2024-03-22T14:30:27;99589.54;;;5.53;65.46
82512;BME280;72152;65.012;25.464;2024-03-22T14:33:32;99582.23;;;5.35;65.31
82512;BME280;72152;65.012;25.464;2024-03-22T14:36:35;99577.34;;;5.21;65.93
82512;BME280;72152;65.012;25.464;2024-03-22T14:39:42;99572.64;;;5.05;66.15
82512;BME280;72152;65.012;25.464;2024-03-22T14:42:41;99570.02;;;4.93;66.42
82512;BME280;72152;65.012;25.464;2024-03-22T14:45:45;99565.30;;;4.84;66.93
82512;BME280;72152;65.012;25.464;2024-03-22T14:48:46;99559.55;;;4.80;66.93
82512;BME280;72152;65.012;25.464;2024-03-22T14:51:48;99557.45;;;4.74;67.10
82512;BME280;72152;65.012;25.464;2024-03-22T14:54:58;99552.55;;;4.66;67.42
82512;BME280;72152;65.012;25.464;2024-03-22T14:58:00;99545.91;;;4.58;67.68
82512;BME280;72152;65.012;25.464;2024-03-22T15:01:08;99547.14;;;4.54;67.81
82512;BME280;72152;65.012;25.464;2024-03-22T15:04:20;99542.77;;;4.50;67.97
82512;BME280;72152;65.012;25.464;2024-03-22T15:07:21;99545.23;;;4.52;68.23
82512;BME280;72152;65.012;25.464;2024-03-22T15:10:27;99540.17;;;4.52;68.40
82512;BME280;72152;65.012;25.464;2024-03-22T15:13:28;99536.67;;;4.47;68.51
82512;BME280;72152;65.012;25.464;2024-03-22T15:16:28;99533.88;;;4.45;68.58
82512;BME280;72152;65.012;25.464;2024-03-22T15:19:35;99533.18;;;4.43;68.96
82512;BME280;72152;65.012;25.464;2024-03-22T15:22:41;99526.19;;;4.37;68.91
82512;BME280;72152;65.012;25.464;2024-03-22T15:25:37;99517.84;;;4.35;69.06
82512;BME280;72152;65.012;25.464;2024-03-22T15:28:32;99512.10;;;4.33;69.10
82512;BME280;72152;65.012;25.464;2024-03-22T15:31:40;99512.95;;;4.30;69.06
82512;BME280;72152;65.012;25.464;2024-03-22T15:34:44;99510.33;;;4.24;69.07
82512;BME280;72152;65.012;25.464;2024-03-22T15:37:58;99507.54;;;4.21;69.41
82512;BME280;72152;65.012;25.464;2024-03-22T15:41:02;99501.95;;;4.17;69.28
82512;BME280;72152;65.012;25.464;2024-03-22T15:44:05;99494.27;;;4.14;69.48
82512;BME280;72152;65.012;25.464;2024-03-22T15:47:11;99487.30;;;4.10;69.35
82512;BME280;72152;65.012;25.464;2024-03-22T15:50:15;99485.55;;;4.06;69.72
82512;BME280;72152;65.012;25.464;2024-03-22T15:53:23;99483.45;;;4.01;69.90
82512;BME280;72152;65.012;25.464;2024-03-22T15:56:30;99484.64;;;3.97;70.07
82512;BME280;72152;65.012;25.464;2024-03-22T15:59:35;99475.94;;;3.92;70.29
82512;BME280;72152;65.012;25.464;2024-03-22T16:02:38;99474.70;;;3.86;70.10
82512;BME280;72152;65.012;25.464;2024-03-22T16:05:40;99469.12;;;3.83;70.30
82512;BME280;72152;65.012;25.464;2024-03-22T16:08:53;99467.20;;;3.80;70.48
82512;BME280;72152;65.012;25.464;2024-03-22T16:11:54;99465.45;;;3.78;70.48
82512;BME280;72152;65.012;25.464;2024-03-22T16:15:00;99461.45;;;3.77;70.74
82512;BME280;72152;65.012;25.464;2024-03-22T16:18:02;99457.27;;;3.74;70.91
82512;BME280;72152;65.012;25.464;2024-03-22T16:21:11;99451.86;;;3.72;71.11
82512;BME280;72152;65.012;25.464;2024-03-22T16:24:22;99447.31;;;3.66;71.10
82512;BME280;72152;65.012;25.464;2024-03-22T16:27:33;99446.27;;;3.62;71.27
82512;BME280;72152;65.012;25.464;2024-03-22T16:30:39;99445.56;;;3.62;71.40
82512;BME280;72152;65.012;25.464;2024-03-22T16:33:41;99441.02;;;3.60;71.36
82512;BME280;72152;65.012;25.464;2024-03-22T16:36:46;99444.51;;;3.57;71.49